Time;durP1;ratioP1;P1;durP2;ratioP2;P2;SDS_P1;SDS_P2;PMS_P1;PMS_P2;Temp;Humidity;BMP_temperature;BMP_pressure;BME280_temperature;BME280_humidity;BME280_pressure;Samples;Min_cycle;Max_cycle;Signal;HPM_P1;HPM_P2
2021/08/04 00:00:27;;;;;;;1.97;1.83;;;;;;;15.85;86.86;95464.88;4945353;28;20719;-74
2021/08/04 00:02:55;;;;;;;4.97;1.90;;;;;;;15.95;86.78;95471.53;4954055;28;20305;-74
2021/08/04 00:05:24;;;;;;;1.93;1.70;;;;;;;15.94;86.69;95465.41;4946616;28;20238;-74
2021/08/04 00:07:53;;;;;;;6.77;1.57;;;;;;;15.96;86.56;95471.31;4943233;28;20309;-74
2021/08/04 00:10:22;;;;;;;3.77;1.87;;;;;;;15.85;86.71;95475.53;4940563;28;20780;-74
2021/08/04 00:12:50;;;;;;;2.70;1.77;;;;;;;15.86;86.72;95471.84;4940834;28;20223;-74
2021/08/04 00:15:19;;;;;;;25.33;3.63;;;;;;;15.86;86.93;95473.69;4938221;28;20412;-74
2021/08/04 00:17:49;;;;;;;3.43;1.60;;;;;;;15.84;86.58;95483.75;4952954;28;20236;-74
2021/08/04 00:20:17;;;;;;;1.30;1.20;;;;;;;15.86;86.27;95492.31;4945206;28;20222;-74
2021/08/04 00:22:45;;;;;;;1.60;1.50;;;;;;;15.88;86.58;95487.56;4950358;28;20268;-74
2021/08/04 00:25:14;;;;;;;1.43;1.33;;;;;;;15.83;86.44;95490.09;4940000;28;20295;-74
2021/08/04 00:27:43;;;;;;;3.73;1.67;;;;;;;15.83;86.48;95484.78;4944772;28;20242;-74
2021/08/04 00:30:13;;;;;;;1.77;1.67;;;;;;;15.82;86.49;95480.50;4946166;28;20226;-74
2021/08/04 00:32:41;;;;;;;1.40;1.27;;;;;;;15.64;86.79;95474.13;4952167;28;20222;-74
2021/08/04 00:35:10;;;;;;;4.07;1.37;;;;;;;15.62;87.24;95478.81;4947116;28;20707;-74
2021/08/04 00:37:39;;;;;;;1.07;1.07;;;;;;;15.48;87.77;95474.66;4947198;28;20225;-74
2021/08/04 00:40:09;;;;;;;2.73;2.27;;;;;;;15.61;87.39;95479.03;4950266;28;20218;-74
2021/08/04 00:42:38;;;;;;;4.37;2.60;;;;;;;15.44;87.82;95484.06;4944883;28;20767;-74
2021/08/04 00:45:08;;;;;;;1.50;1.40;;;;;;;15.40;87.70;95482.91;4951951;28;20229;-74
2021/08/04 00:47:37;;;;;;;1.30;1.30;;;;;;;15.51;87.38;95484.84;4942670;28;20238;-74
2021/08/04 00:50:07;;;;;;;1.20;1.13;;;;;;;15.52;87.54;95485.66;4944789;28;20227;-74
2021/08/04 00:52:35;;;;;;;2.77;1.20;;;;;;;15.51;87.34;95484.03;4940783;28;20219;-74
2021/08/04 00:55:04;;;;;;;3.97;1.53;;;;;;;15.53;87.31;95480.09;4948389;28;20643;-74
2021/08/04 00:57:32;;;;;;;8.47;3.90;;;;;;;15.46;87.52;95482.03;4948250;28;20630;-74
2021/08/04 01:00:02;;;;;;;2.03;1.87;;;;;;;15.47;87.53;95475.69;4948645;28;20692;-74
2021/08/04 01:02:36;;;;;;;1.63;1.53;;;;;;;15.51;87.27;95478.72;4943137;28;20226;-74
2021/08/04 01:05:08;;;;;;;1.53;1.37;;;;;;;15.52;87.50;95470.50;4945776;28;20237;-73
2021/08/04 01:07:41;;;;;;;1.60;1.50;;;;;;;15.50;87.29;95467.25;4949963;28;20228;-74
2021/08/04 01:10:14;;;;;;;3.70;1.47;;;;;;;15.47;87.47;95473.03;4954213;28;20301;-74
2021/08/04 01:12:46;;;;;;;2.60;1.37;;;;;;;15.49;87.48;95470.94;4940645;28;20250;-74
2021/08/04 01:15:16;;;;;;;1.50;1.33;;;;;;;15.59;86.91;95470.44;4943117;28;20222;-74
2021/08/04 01:17:50;;;;;;;1.60;1.50;;;;;;;15.61;86.63;95463.91;4948491;28;20539;-74
2021/08/04 01:20:22;;;;;;;3.57;2.97;;;;;;;15.68;86.49;95463.03;4961587;28;20229;-74
2021/08/04 01:23:02;;;;;;;1.20;1.10;;;;;;;15.70;86.53;95460.94;4950910;28;20224;-74
2021/08/04 01:25:36;;;;;;;1.80;1.70;;;;;;;15.70;86.47;95455.63;4935310;28;20281;-74
2021/08/04 01:28:21;;;;;;;1.37;1.27;;;;;;;15.67;86.72;95466.72;4947056;28;20592;-74
2021/08/04 01:30:53;;;;;;;2.50;2.30;;;;;;;15.61;86.85;95463.91;4939223;28;20226;-74
2021/08/04 01:33:23;;;;;;;2.13;1.70;;;;;;;15.59;86.90;95463.28;4951607;28;20281;-74
2021/08/04 01:35:52;;;;;;;2.10;2.00;;;;;;;15.51;87.03;95458.25;4936684;28;20802;-74
2021/08/04 01:38:23;;;;;;;2.37;1.50;;;;;;;15.53;87.03;95456.16;4944098;28;20222;-74
2021/08/04 01:40:54;;;;;;;4.20;1.43;;;;;;;15.56;86.85;95454.94;4945313;28;20310;-74
2021/08/04 01:43:25;;;;;;;2.10;2.00;;;;;;;15.57;86.87;95457.38;4946343;28;20428;-74
2021/08/04 01:45:56;;;;;;;1.93;1.30;;;;;;;15.58;86.79;95453.69;4943265;28;20227;-74
2021/08/04 01:48:25;;;;;;;1.47;1.37;;;;;;;15.58;86.75;95461.66;4948951;28;20690;-75
2021/08/04 01:50:55;;;;;;;2.83;2.13;;;;;;;15.58;86.93;95460.84;4948535;28;20231;-74
2021/08/04 01:53:25;;;;;;;1.67;1.53;;;;;;;15.56;86.71;95453.09;4941001;28;20250;-74
2021/08/04 01:55:54;;;;;;;1.67;1.57;;;;;;;15.58;86.58;95453.69;4945362;28;20222;-74
2021/08/04 01:58:23;;;;;;;5.40;1.40;;;;;;;15.47;86.67;95451.75;4942536;28;20318;-74
2021/08/04 02:00:51;;;;;;;1.43;1.33;;;;;;;15.50;86.61;95451.28;4936285;28;20313;-74
2021/08/04 02:03:20;;;;;;;2.40;1.60;;;;;;;15.55;86.50;95443.50;4953987;28;20332;-74
2021/08/04 02:05:49;;;;;;;2.30;1.73;;;;;;;15.52;86.48;95448.41;4945808;28;20237;-74
2021/08/04 02:08:25;;;;;;;2.03;1.43;;;;;;;15.49;86.80;95447.00;4947364;28;20433;-74
2021/08/04 02:10:58;;;;;;;2.07;1.60;;;;;;;15.53;86.58;95445.53;4948571;28;20234;-74
2021/08/04 02:13:31;;;;;;;1.73;1.63;;;;;;;15.47;86.99;95443.78;4942414;28;20223;-74
2021/08/04 02:16:25;;;;;;;1.23;1.20;;;;;;;15.47;86.84;95441.09;4933081;28;20223;-74
2021/08/04 02:19:08;;;;;;;1.77;1.67;;;;;;;15.46;86.88;95442.16;4950955;28;20232;-74
2021/08/04 02:21:41;;;;;;;2.43;1.97;;;;;;;15.43;86.91;95437.25;4945202;28;20226;-74
2021/08/04 02:24:11;;;;;;;1.33;1.23;;;;;;;15.43;86.75;95439.91;4941868;28;20218;-74
2021/08/04 02:26:40;;;;;;;1.10;1.00;;;;;;;15.42;86.98;95438.28;4937676;28;20313;-74
2021/08/04 02:29:12;;;;;;;2.30;1.40;;;;;;;15.42;87.29;95432.97;4939512;28;20226;-74
2021/08/04 02:31:42;;;;;;;4.80;2.07;;;;;;;15.41;86.82;95438.50;4958380;28;20711;-74
2021/08/04 02:34:10;;;;;;;2.00;1.53;;;;;;;15.42;86.49;95432.97;4958963;28;20280;-74
2021/08/04 02:36:38;;;;;;;3.97;2.20;;;;;;;15.32;86.89;95432.66;4952860;28;20226;-74
2021/08/04 02:39:07;;;;;;;3.33;1.40;;;;;;;15.31;86.86;95433.69;4955254;28;20261;-74
2021/08/04 02:41:35;;;;;;;1.40;1.30;;;;;;;15.26;87.33;95429.00;4945295;28;20226;-74
2021/08/04 02:44:04;;;;;;;1.30;1.20;;;;;;;15.33;86.97;95426.31;4941970;28;20226;-74
2021/08/04 02:46:34;;;;;;;2.17;1.57;;;;;;;15.31;86.81;95431.03;4944761;28;20227;-74
2021/08/04 02:49:03;;;;;;;4.03;1.00;;;;;;;15.37;86.66;95419.53;4951371;28;21494;-74
2021/08/04 02:51:32;;;;;;;1.97;1.87;;;;;;;15.39;86.66;95412.13;4935453;28;20259;-74
2021/08/04 02:54:00;;;;;;;2.70;1.73;;;;;;;15.39;86.94;95417.47;4940423;28;20281;-74
2021/08/04 02:56:29;;;;;;;4.03;1.93;;;;;;;15.34;86.87;95419.94;4925386;29;20724;-74
2021/08/04 02:58:57;;;;;;;3.10;1.73;;;;;;;15.33;87.00;95413.81;4944414;28;20233;-74
2021/08/04 03:01:26;;;;;;;2.47;1.20;;;;;;;15.40;86.60;95413.75;4951795;28;20225;-74
2021/08/04 03:03:56;;;;;;;2.20;1.13;;;;;;;15.37;86.22;95408.88;4945058;28;20222;-74
2021/08/04 03:06:24;;;;;;;1.43;1.27;;;;;;;15.34;86.42;95417.28;4940565;28;20219;-74
2021/08/04 03:08:53;;;;;;;2.07;1.97;;;;;;;15.30;86.51;95408.94;4956115;28;20444;-74
2021/08/04 03:11:21;;;;;;;1.80;1.60;;;;;;;15.34;86.31;95409.31;4942076;28;20293;-74
2021/08/04 03:13:49;;;;;;;1.30;1.20;;;;;;;15.36;86.11;95408.09;4937462;28;20214;-74
2021/08/04 03:16:17;;;;;;;1.80;0.97;;;;;;;15.31;86.20;95410.56;4944142;28;20301;-74
2021/08/04 03:18:45;;;;;;;5.53;1.30;;;;;;;15.26;86.34;95412.25;4956165;28;20244;-74
2021/08/04 03:21:14;;;;;;;3.60;2.20;;;;;;;15.25;86.49;95421.25;4946248;28;20238;-74
2021/08/04 03:23:43;;;;;;;3.83;2.63;;;;;;;15.25;86.50;95426.56;4935501;28;20308;-74
2021/08/04 03:26:11;;;;;;;1.30;1.20;;;;;;;15.29;86.34;95417.16;4932484;28;20622;-74
2021/08/04 03:28:39;;;;;;;1.90;1.80;;;;;;;15.28;86.24;95418.19;4944013;28;20261;-74
2021/08/04 03:31:07;;;;;;;1.00;1.00;;;;;;;15.23;86.84;95415.34;4944198;28;20285;-74
2021/08/04 03:33:36;;;;;;;0.97;0.90;;;;;;;15.19;86.84;95412.34;4961594;28;20231;-74
2021/08/04 03:36:04;;;;;;;1.53;1.43;;;;;;;15.22;86.71;95416.38;4946327;28;20227;-73
2021/08/04 03:38:34;;;;;;;1.10;1.00;;;;;;;15.24;86.91;95419.63;4942376;28;20307;-74
2021/08/04 03:41:02;;;;;;;1.00;0.80;;;;;;;15.27;86.96;95420.03;4952423;28;20643;-73
2021/08/04 03:43:30;;;;;;;0.97;0.97;;;;;;;15.24;86.92;95428.41;4947317;28;20297;-74
2021/08/04 03:45:58;;;;;;;4.97;1.30;;;;;;;15.26;86.80;95414.91;4940343;28;20222;-74
2021/08/04 03:48:26;;;;;;;2.30;0.80;;;;;;;15.24;87.05;95409.81;4967942;28;20228;-74
2021/08/04 03:50:55;;;;;;;1.50;1.40;;;;;;;15.24;86.83;95416.97;4942257;28;20310;-74
2021/08/04 03:53:23;;;;;;;1.03;0.77;;;;;;;15.26;86.81;95406.94;4940087;28;20270;-74
2021/08/04 03:55:52;;;;;;;0.80;0.80;;;;;;;15.22;86.78;95411.88;4938952;28;20329;-74
2021/08/04 03:58:20;;;;;;;2.07;0.90;;;;;;;15.23;87.02;95410.03;4941599;28;20210;-74
2021/08/04 04:00:48;;;;;;;1.20;1.00;;;;;;;15.23;86.60;95407.38;4943185;28;20257;-74
2021/08/04 04:03:17;;;;;;;1.03;1.00;;;;;;;15.24;86.74;95409.00;4953268;28;20304;-74
2021/08/04 04:05:45;;;;;;;1.63;1.20;;;;;;;15.23;86.79;95416.16;4954956;28;20238;-74
2021/08/04 04:08:13;;;;;;;1.57;1.30;;;;;;;15.25;86.67;95413.28;4939685;28;20285;-74
2021/08/04 04:10:41;;;;;;;0.70;0.70;;;;;;;15.26;86.73;95409.59;4942425;28;20829;-74
2021/08/04 04:13:11;;;;;;;0.60;0.50;;;;;;;15.25;86.56;95422.06;4953888;28;20824;-74
2021/08/04 04:15:43;;;;;;;1.23;1.10;;;;;;;15.25;86.50;95410.63;4947396;28;20218;-74
2021/08/04 04:18:11;;;;;;;1.50;1.33;;;;;;;15.23;86.21;95412.69;4948597;28;20226;-74
2021/08/04 04:20:39;;;;;;;2.17;0.90;;;;;;;15.17;86.46;95408.25;4946473;28;20316;-74
2021/08/04 04:23:07;;;;;;;1.43;0.60;;;;;;;15.16;86.50;95414.59;4940284;28;20226;-74
2021/08/04 04:25:35;;;;;;;1.30;0.90;;;;;;;15.17;86.40;95414.38;4942963;28;20226;-74
2021/08/04 04:28:04;;;;;;;0.97;0.97;;;;;;;15.18;86.37;95413.38;4949045;28;20226;-74
2021/08/04 04:30:33;;;;;;;1.23;1.23;;;;;;;15.17;86.25;95419.69;4944030;28;20231;-74
2021/08/04 04:33:01;;;;;;;1.27;1.17;;;;;;;15.16;86.54;95422.56;4949279;28;20848;-74
2021/08/04 04:35:29;;;;;;;0.60;0.60;;;;;;;15.19;86.21;95419.50;4954877;28;20214;-74
2021/08/04 04:37:58;;;;;;;1.00;0.80;;;;;;;15.17;86.30;95418.88;4940905;28;20874;-74
2021/08/04 04:40:26;;;;;;;0.80;0.80;;;;;;;15.20;86.17;95421.94;4937748;28;20281;-74
2021/08/04 04:42:53;;;;;;;0.80;0.80;;;;;;;15.22;86.30;95419.03;4943156;28;20230;-74
2021/08/04 04:45:21;;;;;;;1.10;0.93;;;;;;;15.23;86.48;95432.13;4937426;28;20744;-74
2021/08/04 04:47:51;;;;;;;0.90;0.90;;;;;;;15.27;86.17;95429.81;4939862;28;20596;-74
2021/08/04 04:50:20;;;;;;;1.90;0.63;;;;;;;15.29;86.17;95427.78;4940829;28;20294;-74
2021/08/04 04:52:48;;;;;;;4.43;1.00;;;;;;;15.30;86.33;95419.59;4941638;28;20250;-74
2021/08/04 04:55:16;;;;;;;1.37;1.20;;;;;;;15.31;86.21;95428.38;4937162;28;20267;-74
2021/08/04 04:57:44;;;;;;;3.63;1.20;;;;;;;15.33;86.07;95428.97;4945060;28;20654;-74
2021/08/04 05:00:13;;;;;;;0.83;0.83;;;;;;;15.39;85.92;95432.59;4942732;28;20466;-74
2021/08/04 05:02:41;;;;;;;1.70;0.93;;;;;;;15.43;86.00;95434.59;4948953;28;20796;-74
2021/08/04 05:05:16;;;;;;;1.37;1.27;;;;;;;15.47;85.87;95424.34;4937215;28;20590;-74
2021/08/04 05:07:44;;;;;;;2.30;1.83;;;;;;;15.57;85.49;95419.31;4939908;28;20226;-74
2021/08/04 05:10:12;;;;;;;1.57;1.47;;;;;;;15.61;85.13;95431.97;4952775;28;20857;-75
2021/08/04 05:12:41;;;;;;;0.63;0.63;;;;;;;15.60;84.89;95419.72;4946595;28;20214;-74
2021/08/04 05:15:11;;;;;;;1.17;1.13;;;;;;;15.69;84.96;95419.44;4948756;28;20241;-74
2021/08/04 05:17:39;;;;;;;0.87;0.87;;;;;;;15.72;85.15;95434.94;4952430;28;20301;-74
2021/08/04 05:20:08;;;;;;;1.20;1.10;;;;;;;15.80;84.26;95429.31;4944369;28;20254;-74
2021/08/04 05:22:43;;;;;;;0.53;0.53;;;;;;;15.84;84.10;95425.19;4942461;28;20230;-74
2021/08/04 05:25:12;;;;;;;1.43;1.33;;;;;;;15.92;84.17;95432.91;4933948;28;20227;-75
2021/08/04 05:27:40;;;;;;;1.53;1.47;;;;;;;15.95;84.09;95432.44;4950936;28;20246;-74
2021/08/04 05:30:12;;;;;;;1.97;1.80;;;;;;;16.04;83.87;95433.75;4949554;28;20293;-75
2021/08/04 05:32:40;;;;;;;1.07;1.07;;;;;;;16.11;84.01;95426.50;4947167;28;20222;-74
2021/08/04 05:35:10;;;;;;;1.07;1.03;;;;;;;16.14;83.93;95423.41;4947258;28;20789;-74
2021/08/04 05:37:38;;;;;;;3.57;0.80;;;;;;;16.22;84.10;95424.94;4950930;28;20323;-73
2021/08/04 05:40:09;;;;;;;1.60;1.23;;;;;;;16.35;82.15;95422.09;4951479;28;20304;-74
2021/08/04 05:42:36;;;;;;;1.73;1.00;;;;;;;16.40;81.73;95424.09;4961642;28;20226;-74
2021/08/04 05:45:06;;;;;;;1.93;1.13;;;;;;;16.52;81.05;95426.78;4947934;28;20226;-74
2021/08/04 05:47:34;;;;;;;0.80;0.80;;;;;;;16.63;80.94;95426.81;4947702;28;20265;-74
2021/08/04 05:50:02;;;;;;;1.33;1.23;;;;;;;16.72;80.22;95438.81;4962271;28;20225;-74
2021/08/04 05:52:30;;;;;;;1.33;0.70;;;;;;;16.84;80.69;95422.06;4940108;28;20245;-74
2021/08/04 05:54:58;;;;;;;2.60;1.07;;;;;;;16.95;80.46;95423.94;4939618;28;20297;-74
2021/08/04 05:57:28;;;;;;;2.07;1.37;;;;;;;17.08;80.19;95426.38;4952212;28;20310;-74
2021/08/04 05:59:56;;;;;;;1.17;1.17;;;;;;;17.14;80.15;95428.13;4950744;28;20746;-74
2021/08/04 06:02:24;;;;;;;1.40;1.30;;;;;;;17.12;80.31;95426.75;4949956;28;20764;-74
2021/08/04 06:04:52;;;;;;;0.73;0.70;;;;;;;17.06;80.50;95431.13;4944527;28;20229;-74
2021/08/04 06:07:21;;;;;;;1.33;0.80;;;;;;;17.16;80.99;95428.72;4945878;28;20252;-74
2021/08/04 06:09:50;;;;;;;0.53;0.53;;;;;;;17.12;80.35;95430.22;4960603;28;20226;-74
2021/08/04 06:12:22;;;;;;;1.03;1.03;;;;;;;17.22;79.99;95427.00;4952939;28;20227;-75
2021/08/04 06:14:51;;;;;;;0.50;0.50;;;;;;;17.26;79.76;95428.94;4946453;28;20306;-74
2021/08/04 06:17:20;;;;;;;0.93;0.73;;;;;;;17.24;79.40;95425.69;4937930;28;20305;-74
2021/08/04 06:19:48;;;;;;;1.00;1.00;;;;;;;17.27;79.20;95422.56;4960183;28;20288;-74
2021/08/04 06:22:16;;;;;;;0.90;0.67;;;;;;;17.28;79.56;95421.56;4955267;28;20309;-74
2021/08/04 06:24:47;;;;;;;1.77;1.67;;;;;;;17.35;78.88;95424.91;4933554;28;20235;-74
2021/08/04 06:27:16;;;;;;;0.60;0.57;;;;;;;17.40;78.69;95416.22;4938502;28;20284;-74
2021/08/04 06:29:44;;;;;;;0.77;0.70;;;;;;;17.47;78.23;95424.09;4943233;28;20222;-74
2021/08/04 06:32:13;;;;;;;0.70;0.70;;;;;;;17.50;78.76;95423.63;4941413;28;20264;-74
2021/08/04 06:34:42;;;;;;;0.70;0.70;;;;;;;17.58;78.59;95421.41;4946322;28;20277;-74
2021/08/04 06:37:10;;;;;;;1.33;1.23;;;;;;;17.69;78.29;95419.78;4939687;28;20674;-75
2021/08/04 06:39:38;;;;;;;1.17;1.13;;;;;;;17.69;77.43;95422.44;4935007;28;20298;-74
2021/08/04 06:42:13;;;;;;;1.07;1.00;;;;;;;17.76;76.22;95422.38;4951528;28;20753;-74
2021/08/04 06:44:41;;;;;;;2.40;0.90;;;;;;;17.75;75.44;95426.09;4943976;28;20230;-74
2021/08/04 06:47:10;;;;;;;0.67;0.67;;;;;;;17.80;75.87;95427.00;4951349;28;20267;-75
2021/08/04 06:49:39;;;;;;;2.23;0.77;;;;;;;17.84;76.34;95424.69;4954143;28;20291;-74
2021/08/04 06:52:08;;;;;;;0.83;0.50;;;;;;;17.87;76.22;95433.03;4943269;28;20238;-74
2021/08/04 06:54:37;;;;;;;1.07;0.50;;;;;;;17.87;76.12;95425.00;4935177;28;20249;-74
2021/08/04 06:57:05;;;;;;;0.47;0.47;;;;;;;17.87;76.67;95433.03;4937023;28;20230;-74
2021/08/04 06:59:33;;;;;;;0.80;0.70;;;;;;;17.81;76.26;95425.13;4948037;28;20711;-73
2021/08/04 07:02:02;;;;;;;0.70;0.57;;;;;;;17.83;76.47;95423.88;4945523;28;20285;-74
2021/08/04 07:04:30;;;;;;;1.70;0.50;;;;;;;17.91;76.63;95420.81;4945605;28;20639;-74
2021/08/04 07:07:02;;;;;;;0.40;0.40;;;;;;;17.99;76.90;95424.16;4949740;28;20234;-74
2021/08/04 07:09:34;;;;;;;0.90;0.60;;;;;;;18.05;76.63;95420.56;4939484;28;20329;-74
2021/08/04 07:12:05;;;;;;;0.50;0.40;;;;;;;18.11;77.07;95419.63;4946723;28;20592;-74
2021/08/04 07:14:33;;;;;;;0.73;0.73;;;;;;;18.19;76.80;95427.25;4955266;28;20305;-74
2021/08/04 07:17:02;;;;;;;1.17;1.07;;;;;;;18.26;76.52;95422.59;4941043;28;20227;-74
2021/08/04 07:19:30;;;;;;;0.73;0.70;;;;;;;18.16;76.25;95425.88;4943649;28;20623;-74
2021/08/04 07:21:57;;;;;;;0.80;0.60;;;;;;;18.26;76.10;95421.78;4957740;28;20280;-74
2021/08/04 07:24:27;;;;;;;1.00;0.90;;;;;;;18.35;74.65;95421.16;4942249;28;20242;-74
2021/08/04 07:26:55;;;;;;;0.30;0.30;;;;;;;18.45;74.35;95426.69;4936831;28;20800;-70
2021/08/04 07:29:23;;;;;;;0.60;0.60;;;;;;;18.40;74.71;95429.28;4928593;28;20254;-70
2021/08/04 07:31:51;;;;;;;1.17;1.07;;;;;;;18.51;74.43;95430.28;4939130;28;20677;-70
2021/08/04 07:34:24;;;;;;;0.87;0.87;;;;;;;18.69;74.31;95422.09;4937705;28;20338;-70
2021/08/04 07:36:53;;;;;;;9.47;0.90;;;;;;;18.75;73.82;95412.31;4951362;28;20254;-70
2021/08/04 07:39:21;;;;;;;2.50;1.00;;;;;;;18.94;71.95;95415.56;4947131;28;20658;-69
2021/08/04 07:41:50;;;;;;;1.07;0.97;;;;;;;19.06;71.97;95420.84;4951780;28;20563;-69
2021/08/04 07:44:19;;;;;;;0.63;0.63;;;;;;;19.15;72.00;95419.38;4944167;28;20233;-70
2021/08/04 07:46:53;;;;;;;1.00;0.60;;;;;;;18.85;72.58;95431.19;4939369;28;20235;-69
2021/08/04 07:49:21;;;;;;;0.50;0.50;;;;;;;19.00;71.77;95423.41;4941072;28;20322;-69
2021/08/04 07:51:50;;;;;;;0.43;0.40;;;;;;;19.19;69.71;95425.84;4934365;28;20235;-69
2021/08/04 07:54:18;;;;;;;4.27;0.70;;;;;;;18.92;71.05;95426.50;4938873;28;20269;-69
2021/08/04 07:56:46;;;;;;;2.10;1.57;;;;;;;19.17;69.49;95425.28;4949737;28;20711;-69
2021/08/04 07:59:16;;;;;;;0.63;0.63;;;;;;;19.24;69.43;95417.94;4962025;28;20474;-69
2021/08/04 08:01:45;;;;;;;0.73;0.40;;;;;;;18.93;69.81;95422.78;4949935;28;20225;-69
2021/08/04 08:04:13;;;;;;;0.57;0.57;;;;;;;19.01;70.96;95424.22;4942590;28;20226;-70
2021/08/04 08:06:41;;;;;;;0.57;0.57;;;;;;;18.92;71.24;95421.13;4933662;28;20767;-69
2021/08/04 08:09:10;;;;;;;0.83;0.83;;;;;;;18.80;71.58;95424.94;4941044;28;20651;-70
2021/08/04 08:11:38;;;;;;;0.57;0.57;;;;;;;18.91;70.54;95430.22;4940383;28;20238;-67
2021/08/04 08:14:07;;;;;;;0.67;0.67;;;;;;;19.07;70.68;95427.81;4940075;28;20218;-66
2021/08/04 08:16:36;;;;;;;0.83;0.83;;;;;;;19.17;69.66;95427.97;4945209;28;20249;-67
2021/08/04 08:19:05;;;;;;;0.90;0.90;;;;;;;19.22;69.69;95430.75;4951739;28;20605;-67
2021/08/04 08:21:34;;;;;;;0.27;0.27;;;;;;;19.32;68.90;95428.22;4935105;28;20285;-70
2021/08/04 08:24:02;;;;;;;0.60;0.50;;;;;;;19.00;71.00;95433.31;4933181;28;20730;-69
2021/08/04 08:26:31;;;;;;;1.07;1.03;;;;;;;19.25;68.78;95430.25;4938699;28;20225;-69
2021/08/04 08:28:59;;;;;;;0.83;0.60;;;;;;;19.30;69.78;95422.31;4949710;28;20226;-69
2021/08/04 08:31:28;;;;;;;0.70;0.70;;;;;;;19.49;70.43;95421.00;4949031;28;20277;-70
2021/08/04 08:33:59;;;;;;;0.63;0.63;;;;;;;19.52;69.96;95420.50;4938867;28;20226;-70
2021/08/04 08:36:27;;;;;;;0.70;0.70;;;;;;;19.66;69.44;95420.16;4945862;28;20218;-69
2021/08/04 08:38:56;;;;;;;1.13;0.90;;;;;;;19.88;68.96;95404.97;4954848;28;20633;-69
2021/08/04 08:41:23;;;;;;;0.73;0.73;;;;;;;19.93;69.09;95410.38;4947561;28;20226;-69
2021/08/04 08:43:51;;;;;;;0.40;0.40;;;;;;;20.03;68.74;95404.34;4939548;28;20297;-70
2021/08/04 08:46:21;;;;;;;0.60;0.60;;;;;;;20.07;68.65;95405.47;4940651;28;20695;-69
2021/08/04 08:48:50;;;;;;;0.33;0.33;;;;;;;20.14;67.65;95400.72;4939963;28;20258;-69
2021/08/04 08:51:22;;;;;;;0.43;0.43;;;;;;;20.16;67.98;95399.41;4942472;28;20829;-69
2021/08/04 08:53:51;;;;;;;0.70;0.70;;;;;;;20.28;67.45;95401.16;4931410;28;20711;-70
2021/08/04 08:56:20;;;;;;;0.60;0.60;;;;;;;20.30;66.68;95390.97;4956529;28;20221;-70
2021/08/04 08:58:50;;;;;;;2.07;1.93;;;;;;;20.39;66.42;95395.66;4948756;28;20305;-69
2021/08/04 09:01:18;;;;;;;2.60;1.40;;;;;;;20.48;66.44;95389.88;4947155;28;20313;-70
2021/08/04 09:03:47;;;;;;;0.70;0.60;;;;;;;20.59;66.46;95380.88;4959705;28;20222;-70
2021/08/04 09:06:15;;;;;;;0.93;0.67;;;;;;;20.29;66.57;95381.31;4945003;28;20234;-70
2021/08/04 09:08:45;;;;;;;0.53;0.50;;;;;;;20.67;66.84;95383.91;4940169;28;20230;-70
2021/08/04 09:11:16;;;;;;;0.70;0.70;;;;;;;21.00;66.22;95376.69;4949245;28;20234;-70
2021/08/04 09:13:46;;;;;;;0.60;0.50;;;;;;;21.26;66.25;95373.16;4948229;28;20243;-69
2021/08/04 09:16:18;;;;;;;4.47;0.93;;;;;;;21.46;66.16;95374.34;4954278;28;20222;-70
2021/08/04 09:18:48;;;;;;;2.50;0.70;;;;;;;21.60;67.00;95369.34;4952366;28;20226;-69
2021/08/04 09:21:17;;;;;;;0.80;0.80;;;;;;;21.79;66.38;95368.66;4947989;28;20317;-69
2021/08/04 09:23:49;;;;;;;0.50;0.50;;;;;;;21.86;64.90;95358.47;4938113;28;20598;-70
2021/08/04 09:26:19;;;;;;;0.70;0.50;;;;;;;21.89;65.10;95357.16;4929603;28;20817;-70
2021/08/04 09:29:00;;;;;;;0.60;0.60;;;;;;;21.89;65.86;95361.72;4962154;28;20243;-70
2021/08/04 09:31:48;;;;;;;0.87;0.87;;;;;;;21.75;64.63;95354.09;4944674;28;20309;-70
2021/08/04 09:34:27;;;;;;;1.30;0.67;;;;;;;21.69;64.02;95373.97;4950879;28;20226;-69
2021/08/04 09:36:59;;;;;;;1.17;0.80;;;;;;;21.60;63.13;95362.09;4949114;28;20253;-69
2021/08/04 09:39:29;;;;;;;1.67;0.77;;;;;;;21.53;61.08;95370.38;4954196;28;20277;-70
2021/08/04 09:41:57;;;;;;;0.37;0.30;;;;;;;21.62;63.14;95364.53;4930960;28;20263;-70
2021/08/04 09:44:25;;;;;;;1.07;0.50;;;;;;;21.70;63.58;95354.09;4943271;28;20222;-69
2021/08/04 09:47:07;;;;;;;0.73;0.63;;;;;;;21.78;64.21;95356.28;4959320;28;20230;-70
2021/08/04 09:49:35;;;;;;;0.43;0.40;;;;;;;21.78;65.16;95361.66;4966709;28;20297;-70
2021/08/04 09:52:06;;;;;;;0.50;0.50;;;;;;;21.79;63.95;95354.41;4942251;28;20345;-69
2021/08/04 09:54:41;;;;;;;0.50;0.50;;;;;;;22.00;63.58;95352.63;4932437;28;20304;-70
2021/08/04 09:57:10;;;;;;;1.13;1.03;;;;;;;22.16;63.39;95348.94;4952481;28;20214;-69
2021/08/04 09:59:40;;;;;;;0.50;0.50;;;;;;;22.33;63.00;95351.44;4952211;28;20242;-70
2021/08/04 10:02:27;;;;;;;0.50;0.50;;;;;;;22.47;60.67;95352.50;4963071;28;20268;-70
2021/08/04 10:05:14;;;;;;;0.93;0.93;;;;;;;22.63;59.41;95350.66;4937479;28;20234;-70
2021/08/04 10:08:01;;;;;;;0.53;0.53;;;;;;;22.74;59.44;95352.28;4942230;28;20224;-70
2021/08/04 10:10:32;;;;;;;0.50;0.40;;;;;;;22.75;57.17;95358.47;4943924;28;20232;-70
2021/08/04 10:13:02;;;;;;;0.73;0.73;;;;;;;22.75;56.41;95359.28;4941600;28;20243;-70
2021/08/04 10:15:38;;;;;;;0.93;0.37;;;;;;;22.68;56.86;95364.13;4941891;28;20246;-69
2021/08/04 10:18:11;;;;;;;0.60;0.60;;;;;;;22.68;57.78;95367.63;4962221;28;20749;-70
2021/08/04 10:20:40;;;;;;;1.10;1.00;;;;;;;22.78;60.78;95364.16;4947305;28;20229;-69
2021/08/04 10:23:09;;;;;;;0.57;0.50;;;;;;;22.93;60.13;95356.09;4941936;28;20721;-70
2021/08/04 10:25:39;;;;;;;0.50;0.50;;;;;;;23.05;57.90;95363.13;4938783;28;20281;-70
2021/08/04 10:28:07;;;;;;;0.77;0.77;;;;;;;23.08;56.71;95357.19;4939201;28;20238;-70
2021/08/04 10:30:37;;;;;;;1.73;1.63;;;;;;;23.20;56.76;95360.41;4944005;28;20230;-70
2021/08/04 10:33:07;;;;;;;4.47;3.90;;;;;;;23.24;55.02;95356.09;4947005;28;20305;-69
2021/08/04 10:35:37;;;;;;;0.97;0.97;;;;;;;23.20;54.77;95357.72;4944540;28;20250;-70
2021/08/04 10:38:10;;;;;;;4.03;3.63;;;;;;;23.09;54.54;95353.41;4941227;28;20300;-70
2021/08/04 10:40:39;;;;;;;1.63;1.53;;;;;;;22.88;54.99;95348.03;4943023;28;20219;-70
2021/08/04 10:43:07;;;;;;;2.80;1.63;;;;;;;22.78;55.37;95353.38;4940967;28;20218;-69
2021/08/04 10:45:36;;;;;;;0.90;0.90;;;;;;;22.82;56.40;95346.38;4938499;28;20306;-69
2021/08/04 10:48:25;;;;;;;0.80;0.80;;;;;;;22.63;55.12;95350.66;4937214;28;20285;-69
2021/08/04 10:51:16;;;;;;;0.80;0.77;;;;;;;22.63;56.20;95353.34;4938087;28;20318;-69
2021/08/04 10:54:14;;;;;;;0.83;0.83;;;;;;;22.79;56.19;95341.53;4939115;28;20227;-70
2021/08/04 10:57:14;;;;;;;1.17;1.10;;;;;;;23.07;55.27;95336.72;4946787;28;20720;-70
2021/08/04 10:59:42;;;;;;;0.90;0.90;;;;;;;23.15;53.65;95330.81;4933398;28;20250;-70
2021/08/04 11:02:30;;;;;;;1.03;1.00;;;;;;;23.12;52.55;95337.53;4938602;28;20592;-69
2021/08/04 11:05:00;;;;;;;1.10;0.70;;;;;;;23.16;53.91;95327.03;4939055;28;20226;-69
2021/08/04 11:07:29;;;;;;;2.33;1.00;;;;;;;23.27;54.80;95323.25;4938990;28;20222;-69
2021/08/04 11:10:04;;;;;;;1.43;0.50;;;;;;;23.26;54.47;95324.31;4936792;28;20226;-70
2021/08/04 11:12:54;;;;;;;3.33;1.47;;;;;;;23.21;53.89;95324.31;4954339;28;20688;-69
2021/08/04 11:15:31;;;;;;;2.57;1.70;;;;;;;23.26;53.39;95329.72;4937221;28;20247;-69
2021/08/04 11:18:06;;;;;;;1.37;0.90;;;;;;;23.18;54.04;95314.09;4940679;28;20223;-69
2021/08/04 11:20:37;;;;;;;1.00;1.00;;;;;;;23.19;55.78;95321.09;4931709;28;20241;-70
2021/08/04 11:23:08;;;;;;;1.80;1.23;;;;;;;23.16;56.05;95324.34;4931541;28;20707;-69
2021/08/04 11:25:41;;;;;;;0.80;0.77;;;;;;;23.07;54.03;95317.91;4929583;28;20226;-70
2021/08/04 11:28:42;;;;;;;1.17;1.07;;;;;;;23.13;55.64;95317.59;4954368;28;20230;-69
2021/08/04 11:31:11;;;;;;;0.70;0.70;;;;;;;23.30;56.15;95311.91;4933344;28;20254;-70
2021/08/04 11:33:40;;;;;;;3.63;1.80;;;;;;;23.41;57.08;95300.06;4937044;28;20484;-70
2021/08/04 11:36:14;;;;;;;0.93;0.93;;;;;;;23.63;55.57;95307.84;4941653;28;20226;-69
2021/08/04 11:38:57;;;;;;;2.40;1.70;;;;;;;23.67;54.33;95308.88;4944281;28;20257;-70
2021/08/04 11:41:30;;;;;;;0.50;0.50;;;;;;;23.63;54.47;95302.44;4929511;28;20317;-70
2021/08/04 11:44:12;;;;;;;1.70;0.90;;;;;;;23.60;54.07;95302.22;4944588;28;20673;-70
2021/08/04 11:46:42;;;;;;;1.00;1.00;;;;;;;23.50;53.14;95306.50;4946864;28;20225;-70
2021/08/04 11:49:16;;;;;;;0.53;0.53;;;;;;;23.31;53.35;95302.75;4957322;28;20225;-70